Terminal Aerodrome Forecast
Issued by NWS

Home | Current Version | Previous Version | Text Only | Print | Product List | Glossary On
Versions: 1 2 3 4 5 6 7 8 9 10 11 12 13 14 15 16 17 18 19
000
FTUS43 KOAX 301800 CCA
TAFCDR
TAF COR
KCDR 301800Z 3018/3118 24012KT P6SM FEW250
     FM302000 21015G22KT P6SM SCT200
     FM310000 19012KT P6SM FEW080 BKN150
     FM310300 19013G25KT P6SM BKN150
     FM310800 20010KT P6SM BKN150=

USA.gov is the U.S. government's official web portal to all federal, state and local government web resources and services.